createdAt,value
2022-11-24T00:01:19.874Z,100.00
2022-11-24T00:03:51.894Z,100.00
2022-11-24T00:06:18.524Z,99.95
2022-11-24T00:08:46.260Z,100.00
2022-11-24T00:11:15.510Z,100.00
2022-11-24T00:13:42.471Z,100.00
2022-11-24T00:16:16.570Z,100.00
2022-11-24T00:18:45.360Z,100.00
2022-11-24T00:21:12.782Z,100.00
2022-11-24T00:23:39.363Z,100.00
2022-11-24T00:26:06.994Z,100.00
2022-11-24T00:28:35.085Z,100.00
2022-11-24T00:31:03.953Z,100.00
2022-11-24T00:33:31.155Z,100.00
2022-11-24T00:36:00.748Z,100.00
2022-11-24T00:38:27.501Z,99.99
2022-11-24T00:40:53.889Z,99.92
2022-11-24T00:43:20.396Z,100.00
2022-11-24T00:45:46.969Z,99.93
2022-11-24T00:48:14.671Z,99.87
2022-11-24T00:50:41.108Z,99.83
2022-11-24T00:53:07.638Z,99.93
2022-11-24T00:55:34.042Z,100.00
2022-11-24T00:58:00.443Z,99.95
2022-11-24T01:00:27.100Z,100.00
2022-11-24T01:02:53.623Z,100.00
2022-11-24T01:05:20.486Z,100.00
2022-11-24T01:07:46.978Z,100.00
2022-11-24T01:10:13.477Z,100.00
2022-11-24T01:12:39.883Z,100.00
2022-11-24T01:15:06.775Z,100.00
2022-11-24T01:17:33.282Z,99.84
2022-11-24T01:19:59.676Z,100.00
2022-11-24T01:22:27.387Z,100.00
2022-11-24T01:24:53.810Z,99.92
2022-11-24T01:27:20.242Z,100.00
2022-11-24T01:29:46.722Z,99.62
2022-11-24T01:32:13.213Z,99.71
2022-11-24T01:34:39.589Z,99.40
2022-11-24T01:37:05.996Z,100.00
2022-11-24T01:39:32.502Z,99.59
2022-11-24T01:42:01.683Z,99.92
2022-11-24T01:44:30.449Z,99.68
2022-11-24T01:47:08.273Z,99.97
2022-11-24T01:49:48.666Z,99.74
2022-11-24T01:52:20.432Z,99.56
2022-11-24T01:54:51.560Z,99.29
2022-11-24T01:57:24.602Z,99.91
2022-11-24T01:59:58.350Z,99.59
2022-11-24T02:02:27.525Z,99.43
2022-11-24T02:04:55.643Z,98.99
2022-11-24T02:07:22.115Z,98.68
2022-11-24T02:09:54.312Z,98.73
2022-11-24T02:12:22.400Z,98.51
2022-11-24T02:14:49.627Z,99.05
2022-11-24T02:17:16.062Z,98.08
2022-11-24T02:20:00.713Z,99.03
2022-11-24T02:23:04.359Z,98.24
2022-11-24T02:26:11.929Z,98.38
2022-11-24T02:28:38.782Z,98.33
2022-11-24T02:31:06.003Z,98.12
2022-11-24T02:33:34.231Z,98.19
2022-11-24T02:36:00.668Z,97.98
2022-11-24T02:38:34.868Z,98.39
2022-11-24T02:41:08.304Z,97.35
2022-11-24T02:43:39.763Z,97.20
2022-11-24T02:46:06.870Z,97.20
2022-11-24T02:48:33.323Z,96.59
2022-11-24T02:50:59.710Z,96.52
2022-11-24T02:55:56.521Z,97.15
2022-11-24T02:58:23.007Z,96.88
2022-11-24T03:00:49.787Z,96.86
2022-11-24T03:03:16.353Z,96.54
2022-11-24T03:05:42.840Z,96.20
2022-11-24T03:08:09.277Z,95.98
2022-11-24T03:10:35.705Z,96.76
2022-11-24T03:13:02.151Z,96.76
2022-11-24T03:15:28.546Z,96.40
2022-11-24T03:17:56.769Z,96.40
2022-11-24T03:20:24.160Z,96.38
2022-11-24T03:22:50.859Z,96.24
2022-11-24T03:25:17.599Z,96.04
2022-11-24T03:27:44.094Z,95.84
2022-11-24T03:30:11.049Z,95.74
2022-11-24T03:32:37.728Z,95.69
2022-11-24T03:35:05.051Z,95.08
2022-11-24T03:37:31.557Z,95.69
2022-11-24T03:39:57.942Z,95.73
2022-11-24T03:42:24.430Z,95.80
2022-11-24T03:44:50.927Z,95.82
2022-11-24T03:47:17.363Z,95.63
2022-11-24T03:49:43.764Z,95.47
2022-11-24T03:52:10.489Z,95.54
2022-11-24T03:54:37.031Z,95.34
2022-11-24T03:57:03.659Z,95.51
2022-11-24T03:59:30.096Z,94.89
2022-11-24T04:01:56.544Z,94.92
2022-11-24T04:04:23.116Z,95.35
2022-11-24T04:06:49.523Z,95.17
2022-11-24T04:09:16.010Z,94.89
2022-11-24T04:12:00.864Z,95.55
2022-11-24T04:14:27.187Z,95.60
2022-11-24T04:16:53.516Z,94.78
2022-11-24T04:19:19.919Z,95.19
2022-11-24T04:21:46.382Z,95.09
2022-11-24T04:24:13.044Z,95.66
2022-11-24T04:26:39.402Z,95.33
2022-11-24T04:29:05.991Z,94.95
2022-11-24T04:31:32.460Z,95.02
2022-11-24T04:33:58.940Z,94.93
2022-11-24T04:36:25.274Z,94.86
2022-11-24T04:39:25.005Z,95.06
2022-11-24T04:41:40.320Z,94.82
2022-11-24T04:44:06.623Z,95.11
2022-11-24T04:46:33.066Z,95.30
2022-11-24T04:48:59.460Z,95.30
2022-11-24T04:51:25.832Z,94.96
2022-11-24T04:53:52.283Z,95.30
2022-11-24T04:56:18.716Z,95.51
2022-11-24T04:58:48.292Z,95.35
2022-11-24T05:01:15.067Z,95.52
2022-11-24T05:03:41.539Z,95.81
2022-11-24T05:06:08.935Z,95.18
2022-11-24T05:08:35.607Z,95.70
2022-11-24T05:11:07.021Z,95.82
2022-11-24T05:13:33.805Z,95.17
2022-11-24T05:16:01.677Z,94.86
2022-11-24T05:18:28.870Z,95.85
2022-11-24T05:20:55.641Z,94.24
2022-11-24T05:23:22.024Z,94.13
2022-11-24T05:25:48.465Z,93.49
2022-11-24T05:28:14.958Z,93.62
2022-11-24T05:30:41.653Z,93.14
2022-11-24T05:33:12.091Z,92.79
2022-11-24T05:35:38.617Z,92.57
2022-11-24T05:38:05.015Z,93.16
2022-11-24T05:40:32.269Z,93.54
2022-11-24T05:42:59.506Z,93.30
2022-11-24T05:45:26.106Z,93.45
2022-11-24T05:47:53.196Z,92.51
2022-11-24T05:50:22.001Z,91.96
2022-11-24T05:52:49.408Z,91.66
2022-11-24T05:55:16.017Z,92.63
2022-11-24T05:57:42.608Z,91.55
2022-11-24T06:00:11.070Z,92.03
2022-11-24T06:02:37.493Z,91.73
2022-11-24T06:05:04.243Z,91.88
2022-11-24T06:07:30.729Z,92.01
2022-11-24T06:09:57.167Z,91.93
2022-11-24T06:12:23.638Z,92.11
2022-11-24T06:14:50.020Z,92.45
2022-11-24T06:17:16.478Z,92.55
2022-11-24T06:19:46.435Z,92.19
2022-11-24T06:22:12.802Z,92.71
2022-11-24T06:24:39.156Z,92.47
2022-11-24T06:27:05.580Z,92.37
2022-11-24T06:29:31.942Z,92.77
2022-11-24T06:31:58.389Z,93.40
2022-11-24T06:34:24.845Z,93.87
2022-11-24T06:36:51.262Z,93.86
2022-11-24T06:39:17.821Z,94.05
2022-11-24T06:41:44.241Z,94.24
2022-11-24T06:44:10.645Z,94.52
2022-11-24T06:46:37.185Z,94.51
2022-11-24T06:49:03.791Z,94.93
2022-11-24T06:51:30.157Z,95.02
2022-11-24T06:53:56.556Z,95.49
2022-11-24T06:56:23.004Z,95.76
2022-11-24T06:58:51.867Z,96.21
2022-11-24T07:01:19.663Z,96.59
2022-11-24T07:03:46.505Z,96.33
2022-11-24T07:06:13.082Z,96.38
2022-11-24T07:08:39.601Z,96.57
2022-11-24T07:11:12.265Z,96.93
2022-11-24T07:13:38.753Z,97.25
2022-11-24T07:16:20.341Z,97.27
2022-11-24T07:18:48.553Z,97.08
2022-11-24T07:21:15.537Z,97.40
2022-11-24T07:23:42.164Z,97.58
2022-11-24T07:26:09.898Z,97.50
2022-11-24T07:28:37.099Z,97.30
2022-11-24T07:31:13.132Z,97.27
2022-11-24T07:33:41.623Z,97.80
2022-11-24T07:36:09.052Z,97.64
2022-11-24T07:38:35.992Z,97.15
2022-11-24T07:41:07.084Z,97.81
2022-11-24T07:43:36.048Z,97.75
2022-11-24T07:46:03.420Z,97.47
2022-11-24T07:48:30.875Z,98.02
2022-11-24T07:51:02.370Z,97.29
2022-11-24T07:53:29.461Z,97.37
2022-11-24T07:56:00.302Z,97.95
2022-11-24T07:58:32.850Z,97.67
2022-11-24T08:01:00.654Z,98.28
2022-11-24T08:03:27.474Z,98.38
2022-11-24T08:08:46.292Z,98.11
2022-11-24T08:11:15.257Z,97.98
2022-11-24T08:13:42.512Z,98.12
2022-11-24T08:16:11.620Z,97.64
2022-11-24T08:18:38.932Z,97.60
2022-11-24T08:21:06.467Z,98.14
2022-11-24T08:23:33.103Z,97.46
2022-11-24T08:26:05.203Z,97.63
2022-11-24T08:28:32.620Z,98.36
2022-11-24T08:31:07.480Z,98.04
2022-11-24T08:33:33.888Z,98.25
2022-11-24T08:36:09.472Z,98.60
2022-11-24T08:38:36.372Z,98.83
2022-11-24T08:41:05.253Z,98.59
2022-11-24T08:43:31.934Z,99.03
2022-11-24T08:46:05.043Z,98.93
2022-11-24T08:48:32.157Z,98.70
2022-11-24T08:50:59.719Z,98.20
2022-11-24T08:53:26.219Z,98.39
2022-11-24T08:55:52.786Z,98.49
2022-11-24T08:58:19.262Z,98.53
2022-11-24T09:00:45.987Z,98.85
2022-11-24T09:03:12.404Z,99.04
2022-11-24T09:05:54.474Z,98.62
2022-11-24T09:08:20.925Z,99.03
2022-11-24T09:10:47.473Z,98.51
2022-11-24T09:13:13.969Z,98.91
2022-11-24T09:15:40.746Z,98.43
2022-11-24T09:18:07.159Z,98.12
2022-11-24T09:20:33.634Z,98.25
2022-11-24T09:23:00.048Z,97.99
2022-11-24T09:25:26.483Z,97.29
2022-11-24T09:27:54.398Z,97.78
2022-11-24T09:30:20.991Z,97.15
2022-11-24T09:32:47.510Z,97.08
2022-11-24T09:35:13.961Z,96.39
2022-11-24T09:37:40.434Z,96.68
2022-11-24T09:40:07.831Z,96.20
2022-11-24T09:42:53.282Z,95.05
2022-11-24T09:46:04.425Z,95.09
2022-11-24T09:48:36.070Z,94.23
2022-11-24T09:51:04.147Z,93.93
2022-11-24T09:53:42.035Z,94.11
2022-11-24T09:56:22.134Z,93.55
2022-11-24T09:59:11.564Z,92.63
2022-11-24T10:01:42.041Z,92.38
2022-11-24T10:04:20.857Z,92.23
2022-11-24T10:06:57.822Z,91.53
2022-11-24T10:09:42.629Z,92.02
2022-11-24T10:12:29.330Z,91.36
2022-11-24T10:15:19.165Z,92.31
2022-11-24T10:18:00.265Z,92.31
2022-11-24T10:20:53.464Z,91.61
2022-11-24T10:23:41.875Z,91.55
2022-11-24T10:26:18.421Z,91.81
2022-11-24T10:28:55.982Z,91.66
2022-11-24T10:31:24.487Z,91.25
2022-11-24T10:33:51.318Z,91.29
2022-11-24T10:36:29.926Z,91.10
2022-11-24T10:39:10.522Z,90.20
2022-11-24T10:41:45.662Z,89.88
2022-11-24T10:44:15.693Z,89.27
2022-11-24T10:46:42.602Z,89.59
2022-11-24T10:49:17.916Z,89.03
2022-11-24T10:52:13.804Z,88.61
2022-11-24T10:55:00.052Z,89.31
2022-11-24T10:57:38.025Z,88.80
2022-11-24T11:00:20.013Z,89.06
2022-11-24T11:02:48.691Z,88.80
2022-11-24T11:05:44.580Z,88.84
2022-11-24T11:08:14.243Z,88.10
2022-11-24T11:10:42.555Z,87.12
2022-11-24T11:13:29.467Z,87.73
2022-11-24T11:15:57.783Z,86.66
2022-11-24T11:18:31.949Z,86.63
2022-11-24T11:21:03.982Z,86.27
2022-11-24T11:23:37.900Z,86.06
2022-11-24T11:26:18.844Z,86.11
2022-11-24T11:35:03.018Z,85.09
2022-11-24T11:37:32.798Z,84.93
2022-11-24T11:40:00.375Z,84.69
2022-11-24T11:43:00.711Z,84.46
2022-11-24T11:45:34.779Z,84.62
2022-11-24T11:48:01.184Z,84.76
2022-11-24T11:50:47.455Z,84.34
2022-11-24T11:53:32.884Z,84.79
2022-11-24T11:56:22.295Z,84.39
2022-11-24T11:59:18.977Z,84.36
2022-11-24T12:02:13.672Z,84.95
2022-11-24T12:04:46.286Z,84.44
2022-11-24T12:07:41.863Z,85.54
2022-11-24T12:10:22.346Z,84.37
2022-11-24T12:13:03.279Z,84.54
2022-11-24T12:15:50.010Z,84.87
2022-11-24T12:18:58.043Z,85.42
2022-11-24T12:22:05.491Z,85.42
2022-11-24T12:24:37.700Z,84.64
2022-11-24T12:27:23.135Z,84.91
2022-11-24T12:30:13.370Z,85.01
2022-11-24T12:32:58.256Z,85.41
2022-11-24T12:35:45.732Z,84.95
2022-11-24T12:38:21.423Z,84.47
2022-11-24T12:41:39.795Z,84.52
2022-11-24T12:43:59.713Z,85.67
2022-11-24T12:46:46.549Z,85.19
2022-11-24T12:49:25.058Z,84.52
2022-11-24T12:52:01.407Z,84.34
2022-11-24T12:54:40.263Z,84.12
2022-11-24T12:57:19.172Z,83.55
2022-11-24T13:00:02.150Z,84.71
2022-11-24T13:02:53.535Z,84.62
2022-11-24T13:05:34.977Z,84.70
2022-11-24T13:08:04.291Z,84.04
2022-11-24T13:10:55.467Z,83.96
2022-11-24T13:13:27.896Z,84.54
2022-11-24T13:16:20.703Z,84.88
2022-11-24T13:18:53.997Z,84.33
2022-11-24T13:21:36.416Z,84.25
2022-11-24T13:24:06.146Z,84.07
2022-11-24T13:26:41.482Z,83.91
2022-11-24T13:29:35.604Z,83.82
2022-11-24T13:32:01.904Z,84.45
2022-11-24T13:34:40.979Z,84.05
2022-11-24T13:37:33.777Z,84.71
2022-11-24T13:40:14.048Z,84.75
2022-11-24T13:43:07.615Z,84.24
2022-11-24T13:45:40.196Z,84.20
2022-11-24T13:48:19.370Z,84.02
2022-11-24T13:50:55.943Z,83.87
2022-11-24T13:53:35.790Z,84.46
2022-11-24T13:56:17.331Z,83.65
2022-11-24T13:58:46.161Z,84.14
2022-11-24T14:01:25.239Z,84.01
2022-11-24T14:04:30.408Z,84.10
2022-11-24T14:06:53.046Z,83.91
2022-11-24T14:09:38.270Z,84.53
2022-11-24T14:12:13.384Z,84.99
2022-11-24T14:14:41.089Z,84.66
2022-11-24T14:17:13.300Z,84.45
2022-11-24T14:19:41.077Z,84.30
2022-11-24T14:22:17.937Z,84.15
2022-11-24T14:24:47.038Z,84.56
2022-11-24T14:27:17.221Z,84.81
2022-11-24T14:30:02.015Z,84.29
2022-11-24T14:32:28.404Z,85.04
2022-11-24T14:34:55.531Z,84.86
2022-11-24T14:37:22.539Z,84.98
2022-11-24T14:39:48.993Z,85.29
2022-11-24T14:42:20.197Z,84.78
2022-11-24T14:45:00.176Z,85.12
2022-11-24T14:47:37.477Z,85.55
2022-11-24T14:50:16.530Z,85.73
2022-11-24T14:52:53.883Z,85.21
2022-11-24T14:55:37.713Z,86.17
2022-11-24T14:58:20.962Z,85.51
2022-11-24T15:01:12.537Z,86.78
2022-11-24T15:03:39.221Z,86.65
2022-11-24T15:06:17.719Z,86.38
2022-11-24T15:08:47.156Z,87.30
2022-11-24T15:11:14.312Z,86.60
2022-11-24T15:13:53.160Z,86.71
2022-11-24T15:16:23.260Z,87.62
2022-11-24T15:18:58.583Z,86.90
2022-11-24T15:21:36.356Z,87.34
2022-11-24T15:24:15.771Z,87.82
2022-11-24T15:26:42.993Z,87.46
2022-11-24T15:29:11.081Z,87.81
2022-11-24T15:31:38.830Z,88.28
2022-11-24T15:34:05.999Z,88.24
2022-11-24T15:36:33.257Z,88.05
2022-11-24T15:39:00.045Z,88.61
2022-11-24T15:41:31.988Z,88.77
2022-11-24T15:43:59.371Z,88.59
2022-11-24T15:46:30.776Z,88.48
2022-11-24T15:48:57.422Z,88.50
2022-11-24T15:51:27.422Z,88.55
2022-11-24T15:54:00.797Z,88.71
2022-11-24T15:56:36.621Z,89.38
2022-11-24T15:59:03.912Z,89.46
2022-11-24T16:01:32.030Z,89.27
2022-11-24T16:03:58.987Z,88.96
2022-11-24T16:06:25.799Z,89.92
2022-11-24T16:08:53.597Z,89.06
2022-11-24T16:11:20.888Z,89.68
2022-11-24T16:13:54.171Z,89.25
2022-11-24T16:16:23.116Z,89.89
2022-11-24T16:18:49.965Z,89.48
2022-11-24T16:21:16.777Z,89.46
2022-11-24T16:23:43.459Z,89.71
2022-11-24T16:26:10.384Z,90.09
2022-11-24T16:28:37.004Z,90.45
2022-11-24T16:31:03.474Z,90.29
2022-11-24T16:33:30.520Z,90.21
2022-11-24T16:35:57.330Z,90.34
2022-11-24T16:38:23.762Z,90.02
2022-11-24T16:40:54.698Z,90.60
2022-11-24T16:43:21.186Z,90.49
2022-11-24T16:46:01.434Z,90.00
2022-11-24T16:48:27.896Z,90.19
2022-11-24T16:50:54.418Z,90.29
2022-11-24T16:53:20.842Z,90.53
2022-11-24T16:55:56.743Z,90.48
2022-11-24T16:58:23.260Z,90.70
2022-11-24T17:00:50.497Z,90.91
2022-11-24T17:03:17.379Z,90.74
2022-11-24T17:05:43.871Z,90.43
2022-11-24T17:08:10.319Z,90.83
2022-11-24T17:10:39.657Z,90.21
2022-11-24T17:13:06.130Z,90.43
2022-11-24T17:15:36.607Z,90.81
2022-11-24T17:18:23.906Z,90.74
2022-11-24T17:20:51.414Z,91.02
2022-11-24T17:23:19.747Z,90.66
2022-11-24T17:25:46.434Z,91.15
2022-11-24T17:28:13.150Z,90.54
2022-11-24T17:30:39.599Z,90.64
2022-11-24T17:33:06.365Z,91.39
2022-11-24T17:35:35.838Z,91.15
2022-11-24T17:38:02.896Z,90.73
2022-11-24T17:40:29.903Z,91.02
2022-11-24T17:43:00.585Z,91.09
2022-11-24T17:45:28.019Z,90.77
2022-11-24T17:47:55.270Z,91.06
2022-11-24T17:50:25.703Z,90.91
2022-11-24T17:52:53.231Z,91.07
2022-11-24T17:55:19.813Z,91.47
2022-11-24T17:57:46.330Z,91.38
2022-11-24T18:00:13.722Z,91.41
2022-11-24T18:02:40.335Z,91.20
2022-11-24T18:05:07.336Z,91.28
2022-11-24T18:07:36.622Z,91.44
2022-11-24T18:10:03.593Z,91.43
2022-11-24T18:12:30.048Z,90.99
2022-11-24T18:14:56.670Z,91.13
2022-11-24T18:17:23.267Z,90.85
2022-11-24T18:19:49.989Z,91.03
2022-11-24T18:22:16.478Z,91.01
2022-11-24T18:24:42.988Z,91.05
2022-11-24T18:27:09.809Z,90.96
2022-11-24T18:29:39.206Z,91.11
2022-11-24T18:32:06.402Z,90.37
2022-11-24T18:34:33.267Z,90.75
2022-11-24T18:37:00.108Z,90.66
2022-11-24T18:39:28.475Z,90.37
2022-11-24T18:41:55.086Z,90.43
2022-11-24T18:44:29.874Z,90.32
2022-11-24T18:46:58.763Z,89.90
2022-11-24T18:49:25.632Z,90.11
2022-11-24T18:51:52.885Z,90.46
2022-11-24T18:54:19.562Z,90.34
2022-11-24T18:56:46.104Z,90.59
2022-11-24T18:59:19.991Z,89.63
2022-11-24T19:01:47.159Z,89.98
2022-11-24T19:04:15.302Z,89.62
2022-11-24T19:06:41.926Z,89.72
2022-11-24T19:09:14.508Z,89.73
2022-11-24T19:11:43.782Z,89.97
2022-11-24T19:14:15.454Z,89.13
2022-11-24T19:16:44.169Z,89.72
2022-11-24T19:19:12.859Z,89.72
2022-11-24T19:21:40.926Z,89.38
2022-11-24T19:24:11.747Z,89.42
2022-11-24T19:26:39.416Z,89.54
2022-11-24T19:29:07.644Z,89.11
2022-11-24T19:31:35.107Z,89.09
2022-11-24T19:34:03.056Z,89.35
2022-11-24T19:36:29.814Z,89.27
2022-11-24T19:38:57.805Z,88.71
2022-11-24T19:41:27.313Z,88.76
2022-11-24T19:43:54.773Z,89.22
2022-11-24T19:46:22.579Z,88.38
2022-11-24T19:48:50.964Z,88.60
2022-11-24T19:51:22.821Z,88.25
2022-11-24T19:53:49.684Z,88.36
2022-11-24T19:56:25.229Z,88.82
2022-11-24T19:58:53.821Z,88.41
2022-11-24T20:01:24.834Z,88.07
2022-11-24T20:04:12.645Z,88.40
2022-11-24T20:06:41.975Z,87.68
2022-11-24T20:09:11.450Z,88.08
2022-11-24T20:11:38.788Z,87.89
2022-11-24T20:14:06.643Z,87.71
2022-11-24T20:16:34.982Z,87.78
2022-11-24T20:19:07.564Z,87.92
2022-11-24T20:21:36.697Z,87.47
2022-11-24T20:24:10.966Z,87.75
2022-11-24T20:26:40.834Z,87.67
2022-11-24T20:29:09.935Z,87.97
2022-11-24T20:31:39.581Z,87.97
2022-11-24T20:34:09.611Z,87.59
2022-11-24T20:36:39.841Z,87.42
2022-11-24T20:39:10.305Z,87.74
2022-11-24T20:41:38.980Z,88.05
2022-11-24T20:44:10.707Z,87.15
2022-11-24T20:46:38.782Z,86.99
2022-11-24T20:49:07.549Z,87.55
2022-11-24T20:51:37.810Z,86.87
2022-11-24T20:54:07.993Z,87.55
2022-11-24T20:56:37.747Z,87.60
2022-11-24T20:59:04.630Z,87.49
2022-11-24T21:01:38.495Z,87.14
2022-11-24T21:04:10.847Z,87.45
2022-11-24T21:06:37.657Z,87.36
2022-11-24T21:09:05.548Z,87.16
2022-11-24T21:11:32.390Z,87.66
2022-11-24T21:13:59.712Z,87.45
2022-11-24T21:16:31.687Z,87.68
2022-11-24T21:19:03.973Z,86.95
2022-11-24T21:21:34.451Z,87.46
2022-11-24T21:24:12.720Z,87.39
2022-11-24T21:26:40.290Z,87.03
2022-11-24T21:29:07.111Z,87.00
2022-11-24T21:31:38.317Z,87.39
2022-11-24T21:34:06.448Z,87.33
2022-11-24T21:36:34.861Z,87.40
2022-11-24T21:39:02.807Z,87.30
2022-11-24T21:41:32.928Z,86.97
2022-11-24T21:43:59.653Z,87.83
2022-11-24T21:46:26.484Z,87.38
2022-11-24T21:48:54.043Z,87.84
2022-11-24T21:51:21.407Z,87.54
2022-11-24T21:53:47.866Z,87.64
2022-11-24T21:56:17.094Z,87.70
2022-11-24T21:58:48.938Z,87.89
2022-11-24T22:01:17.853Z,87.75
2022-11-24T22:03:45.719Z,87.49
2022-11-24T22:06:12.312Z,88.13
2022-11-24T22:08:39.012Z,88.04
2022-11-24T22:11:09.911Z,88.64
2022-11-24T22:13:36.383Z,88.32
2022-11-24T22:16:09.145Z,88.46
2022-11-24T22:18:38.074Z,87.67
2022-11-24T22:21:05.765Z,87.97
2022-11-24T22:23:33.019Z,88.24
2022-11-24T22:26:08.118Z,88.02
2022-11-24T22:28:35.358Z,88.58
2022-11-24T22:31:14.276Z,88.67
2022-11-24T22:33:41.072Z,88.72
2022-11-24T22:36:08.316Z,88.53
2022-11-24T22:38:35.012Z,88.82
2022-11-24T22:41:03.158Z,89.24
2022-11-24T22:43:34.004Z,88.63
2022-11-24T22:46:05.818Z,89.29
2022-11-24T22:48:32.615Z,89.08
2022-11-24T22:51:04.584Z,88.96
2022-11-24T22:53:30.970Z,89.29
2022-11-24T22:56:01.435Z,88.97
2022-11-24T22:58:27.839Z,89.14
2022-11-24T23:00:54.217Z,89.13
2022-11-24T23:03:20.625Z,89.19
2022-11-24T23:05:47.047Z,89.32
2022-11-24T23:08:13.376Z,89.71
2022-11-24T23:10:39.824Z,90.65
2022-11-24T23:13:06.229Z,90.36
2022-11-24T23:15:32.660Z,91.71
2022-11-24T23:17:59.041Z,91.61
2022-11-24T23:20:25.523Z,91.66
2022-11-24T23:22:53.188Z,91.54
2022-11-24T23:25:19.575Z,91.92
2022-11-24T23:27:46.026Z,92.18
2022-11-24T23:30:12.505Z,92.19
2022-11-24T23:32:38.892Z,92.52
2022-11-24T23:35:09.656Z,92.42
2022-11-24T23:38:06.083Z,93.12
2022-11-24T23:40:25.580Z,92.19
2022-11-24T23:42:52.112Z,92.95
2022-11-24T23:45:18.557Z,92.77
2022-11-24T23:47:45.079Z,93.06
2022-11-24T23:50:11.580Z,93.66
2022-11-24T23:52:37.987Z,93.69
2022-11-24T23:55:04.879Z,93.81
2022-11-24T23:57:33.838Z,94.80
